Time;durP1;ratioP1;P1;durP2;ratioP2;P2;SDS_P1;SDS_P2;PMS_P1;PMS_P2;Temp;Humidity;BMP_temperature;BMP_pressure;BME280_temperature;BME280_humidity;BME280_pressure;Samples;Min_cycle;Max_cycle;Signal;HPM_P1;HPM_P2
2023/05/18 00:01:19;;;;;;;13.40;2.90;;;8.00;99.90;;;;;;5055402;28;20056;-67
2023/05/18 00:03:46;;;;;;;19.13;3.38;;;8.00;99.90;;;;;;5041383;28;20040;-68
2023/05/18 00:06:12;;;;;;;10.93;2.50;;;8.00;99.90;;;;;;5052954;28;20523;-66
2023/05/18 00:08:38;;;;;;;10.93;2.90;;;8.00;99.90;;;;;;5047557;28;20348;-67
2023/05/18 00:11:05;;;;;;;16.48;3.47;;;8.00;99.90;;;;;;5048410;28;20033;-68
2023/05/18 00:13:31;;;;;;;15.45;3.00;;;8.00;99.90;;;;;;5046939;28;20505;-67
2023/05/18 00:15:57;;;;;;;12.10;2.42;;;8.00;99.90;;;;;;5048022;28;20475;-68
2023/05/18 00:18:23;;;;;;;13.45;2.35;;;8.00;99.90;;;;;;5048144;28;20355;-68
2023/05/18 00:20:59;;;;;;;11.25;2.55;;;8.00;99.90;;;;;;5045555;28;20044;-68
2023/05/18 00:23:29;;;;;;;12.50;3.22;;;8.00;99.90;;;;;;5032803;28;20041;-68
2023/05/18 00:25:59;;;;;;;11.30;2.67;;;8.10;99.90;;;;;;5038975;28;20037;-68
2023/05/18 00:28:25;;;;;;;11.10;2.40;;;8.00;99.90;;;;;;5047866;28;20080;-68
2023/05/18 00:30:52;;;;;;;11.45;2.35;;;8.00;99.90;;;;;;5054997;28;20462;-68
2023/05/18 00:33:18;;;;;;;11.90;2.63;;;8.00;99.90;;;;;;5050205;28;20117;-68
2023/05/18 00:35:44;;;;;;;13.63;2.78;;;8.00;99.90;;;;;;5062838;28;20076;-67
2023/05/18 00:38:14;;;;;;;10.98;3.35;;;8.00;99.90;;;;;;5028492;28;20524;-68
2023/05/18 00:40:40;;;;;;;15.23;2.80;;;8.10;99.90;;;;;;5045216;28;20037;-67
2023/05/18 00:43:06;;;;;;;15.55;2.78;;;8.00;99.90;;;;;;5068504;28;20046;-67
2023/05/18 00:45:32;;;;;;;9.82;3.53;;;8.00;99.90;;;;;;5047407;28;20036;-66
2023/05/18 00:47:58;;;;;;;18.13;3.60;;;8.00;99.90;;;;;;5046820;28;20041;-67
2023/05/18 00:50:24;;;;;;;14.82;3.50;;;8.00;99.90;;;;;;5055647;28;20106;-68
2023/05/18 00:52:51;;;;;;;10.85;3.25;;;7.90;99.90;;;;;;5048960;28;20045;-68
2023/05/18 00:55:17;;;;;;;16.08;3.97;;;8.00;99.90;;;;;;5062503;28;20741;-67
2023/05/18 00:57:47;;;;;;;15.50;3.03;;;7.90;99.90;;;;;;5044854;28;20052;-68
2023/05/18 01:00:13;;;;;;;18.92;3.65;;;7.90;99.90;;;;;;5054568;28;20106;-67
2023/05/18 01:02:44;;;;;;;12.50;3.90;;;8.00;99.90;;;;;;5045853;28;20106;-68
2023/05/18 01:05:11;;;;;;;15.82;3.47;;;8.00;99.90;;;;;;5045792;28;20076;-68
2023/05/18 01:07:43;;;;;;;11.45;2.90;;;8.00;99.90;;;;;;5029709;28;20111;-68
2023/05/18 01:10:10;;;;;;;12.93;3.22;;;8.00;99.90;;;;;;5044618;28;20040;-68
2023/05/18 01:12:55;;;;;;;16.45;3.42;;;8.00;99.90;;;;;;5050272;28;20040;-68
2023/05/18 01:15:37;;;;;;;15.32;3.40;;;8.00;99.90;;;;;;5051104;28;20444;-68
2023/05/18 01:18:32;;;;;;;17.02;3.05;;;8.00;99.90;;;;;;5027792;28;20037;-68
2023/05/18 01:21:09;;;;;;;13.52;3.75;;;8.10;99.90;;;;;;5047716;28;20056;-67
2023/05/18 01:24:02;;;;;;;16.95;3.10;;;8.00;99.90;;;;;;5083026;28;20113;-67
2023/05/18 01:26:31;;;;;;;14.70;3.17;;;8.10;99.90;;;;;;5064278;28;20048;-68
2023/05/18 01:29:04;;;;;;;15.85;3.50;;;8.10;99.90;;;;;;5028715;28;20329;-68
2023/05/18 01:31:30;;;;;;;15.27;3.65;;;8.10;99.90;;;;;;5054003;28;20036;-68
2023/05/18 01:33:55;;;;;;;19.05;3.35;;;8.10;99.90;;;;;;5046569;28;20071;-68
2023/05/18 01:36:21;;;;;;;13.10;3.85;;;8.10;99.90;;;;;;5039704;28;20037;-68
2023/05/18 01:38:47;;;;;;;12.27;3.30;;;8.10;99.90;;;;;;5030224;28;20269;-68
2023/05/18 01:41:25;;;;;;;10.85;3.03;;;8.10;99.90;;;;;;5048832;28;20075;-68
2023/05/18 01:44:16;;;;;;;12.80;3.90;;;8.10;99.90;;;;;;5061209;28;20128;-66
2023/05/18 01:46:55;;;;;;;13.73;3.22;;;8.10;99.90;;;;;;5060843;28;20055;-67
2023/05/18 01:49:30;;;;;;;13.77;3.40;;;8.10;99.90;;;;;;5054168;28;20079;-68
2023/05/18 01:52:02;;;;;;;11.90;3.25;;;8.10;99.90;;;;;;5051047;28;20041;-68
2023/05/18 01:54:30;;;;;;;12.50;3.17;;;8.10;99.90;;;;;;5044673;28;20045;-68
2023/05/18 01:56:57;;;;;;;12.25;3.15;;;8.10;99.90;;;;;;5050185;28;20037;-68
2023/05/18 01:59:24;;;;;;;12.52;3.28;;;8.10;99.90;;;;;;5045860;28;20055;-68
2023/05/18 02:01:50;;;;;;;11.07;3.17;;;8.10;99.90;;;;;;5074478;28;20049;-69
2023/05/18 02:04:16;;;;;;;15.88;3.80;;;8.10;99.90;;;;;;5033410;28;20028;-68
2023/05/18 02:06:42;;;;;;;13.20;3.90;;;8.20;99.90;;;;;;5066142;28;20090;-69
2023/05/18 02:09:07;;;;;;;11.88;3.83;;;8.10;99.90;;;;;;5036836;28;20037;-69
2023/05/18 02:11:33;;;;;;;17.50;3.60;;;8.10;99.90;;;;;;5044545;28;20040;-69
2023/05/18 02:14:00;;;;;;;15.07;3.45;;;8.10;99.90;;;;;;5068140;28;20476;-69
2023/05/18 02:16:25;;;;;;;13.55;3.40;;;8.10;99.90;;;;;;5037505;28;20105;-68
2023/05/18 02:18:52;;;;;;;9.57;2.88;;;8.10;99.90;;;;;;5056940;28;20044;-69
2023/05/18 02:21:17;;;;;;;13.10;3.58;;;8.10;99.90;;;;;;5065050;28;20271;-68
2023/05/18 02:23:43;;;;;;;10.25;3.13;;;8.10;99.90;;;;;;5049922;28;20120;-68
2023/05/18 02:26:09;;;;;;;17.73;4.32;;;8.10;99.90;;;;;;5061615;28;20044;-68
2023/05/18 02:28:38;;;;;;;15.13;3.38;;;8.10;99.90;;;;;;5029111;28;20037;-68
2023/05/18 02:31:09;;;;;;;15.05;3.22;;;8.10;99.90;;;;;;5039916;28;20112;-68
2023/05/18 02:33:38;;;;;;;12.10;3.15;;;8.10;99.90;;;;;;5054693;28;20135;-68
2023/05/18 02:36:11;;;;;;;11.20;3.75;;;8.10;99.90;;;;;;5049495;28;20133;-68
2023/05/18 02:38:39;;;;;;;13.85;4.28;;;8.10;99.90;;;;;;5046818;28;20132;-66
2023/05/18 02:41:05;;;;;;;11.02;3.05;;;8.00;99.90;;;;;;5031672;28;20056;-67
2023/05/18 02:43:31;;;;;;;13.98;2.97;;;8.00;99.90;;;;;;5036822;28;20510;-69
2023/05/18 02:45:57;;;;;;;15.70;3.50;;;8.00;99.90;;;;;;5052757;28;20028;-69
2023/05/18 02:48:23;;;;;;;11.43;3.13;;;8.00;99.90;;;;;;5059117;28;20111;-69
2023/05/18 02:50:49;;;;;;;12.25;2.80;;;8.00;99.90;;;;;;5030648;28;20477;-69
2023/05/18 02:53:15;;;;;;;21.02;3.70;;;8.00;99.90;;;;;;5046208;28;20459;-68
2023/05/18 02:55:42;;;;;;;17.88;3.30;;;8.10;99.90;;;;;;5045260;28;20044;-69
2023/05/18 02:58:12;;;;;;;12.18;2.58;;;8.10;99.90;;;;;;5043851;28;20432;-69
2023/05/18 03:00:38;;;;;;;12.30;2.80;;;8.10;99.90;;;;;;5045112;28;20412;-69
2023/05/18 03:03:04;;;;;;;11.15;3.00;;;8.10;99.90;;;;;;5043896;28;20056;-69
2023/05/18 03:05:30;;;;;;;10.80;2.58;;;8.10;99.90;;;;;;5048524;28;20041;-69
2023/05/18 03:07:56;;;;;;;13.65;2.72;;;8.10;99.90;;;;;;5050963;28;20045;-69
2023/05/18 03:10:23;;;;;;;13.32;2.70;;;8.10;99.90;;;;;;5079478;28;20036;-69
2023/05/18 03:12:48;;;;;;;11.73;2.80;;;8.20;99.90;;;;;;5031875;28;20040;-69
2023/05/18 03:15:17;;;;;;;11.85;3.15;;;8.20;99.90;;;;;;5047042;28;20048;-69
2023/05/18 03:17:43;;;;;;;13.80;3.13;;;8.10;99.90;;;;;;5045319;28;20052;-69
2023/05/18 03:20:10;;;;;;;11.25;2.90;;;8.10;99.90;;;;;;5045737;28;20555;-69
2023/05/18 03:22:36;;;;;;;10.25;2.67;;;8.10;99.90;;;;;;5047214;28;20037;-69
2023/05/18 03:25:06;;;;;;;8.68;2.60;;;8.10;99.90;;;;;;5041665;28;20037;-69
2023/05/18 03:27:32;;;;;;;10.15;2.75;;;8.10;99.90;;;;;;5043049;28;20094;-69
2023/05/18 03:29:58;;;;;;;12.90;2.70;;;8.20;99.90;;;;;;5048767;28;20124;-69
2023/05/18 03:32:24;;;;;;;15.48;2.72;;;8.20;99.90;;;;;;5057834;28;20037;-69
2023/05/18 03:34:51;;;;;;;13.50;3.17;;;8.20;99.90;;;;;;5027508;28;20097;-69
2023/05/18 03:37:18;;;;;;;12.25;3.05;;;8.20;99.90;;;;;;5057841;28;20446;-69
2023/05/18 03:39:43;;;;;;;11.80;2.85;;;8.10;99.90;;;;;;5054966;28;20048;-69
2023/05/18 03:42:09;;;;;;;10.32;3.03;;;8.20;99.90;;;;;;5052360;28;20765;-68
2023/05/18 03:44:35;;;;;;;11.82;3.15;;;8.10;99.90;;;;;;5066986;28;20039;-68
2023/05/18 03:47:01;;;;;;;13.43;3.20;;;8.10;99.90;;;;;;5063669;28;20032;-67
2023/05/18 03:49:28;;;;;;;11.15;3.25;;;8.10;99.90;;;;;;5043085;28;20052;-68
2023/05/18 03:51:55;;;;;;;9.20;3.00;;;8.00;99.90;;;;;;5042920;28;20806;-68
2023/05/18 03:54:21;;;;;;;12.70;2.92;;;8.00;99.90;;;;;;5062280;28;20041;-69
2023/05/18 03:56:47;;;;;;;10.45;2.85;;;8.00;99.90;;;;;;5046641;28;20039;-69
2023/05/18 03:59:13;;;;;;;12.60;2.70;;;8.00;99.90;;;;;;5032575;28;20115;-69
2023/05/18 04:01:43;;;;;;;15.65;3.38;;;8.00;99.90;;;;;;5037485;28;20044;-68
2023/05/18 04:04:16;;;;;;;10.93;2.90;;;8.10;99.90;;;;;;5032648;28;20047;-68
2023/05/18 04:06:45;;;;;;;15.53;3.33;;;8.10;99.90;;;;;;5049715;28;20037;-68
2023/05/18 04:09:13;;;;;;;13.00;2.90;;;8.10;99.90;;;;;;5047357;28;20040;-69
2023/05/18 04:11:40;;;;;;;14.68;3.15;;;8.10;99.90;;;;;;5062910;28;20074;-69
2023/05/18 04:14:07;;;;;;;13.55;3.70;;;8.10;99.90;;;;;;5067176;28;20141;-68
2023/05/18 04:16:33;;;;;;;12.23;3.03;;;8.10;99.90;;;;;;5047901;28;20045;-69
2023/05/18 04:18:59;;;;;;;12.63;3.03;;;8.10;99.90;;;;;;5050687;28;20136;-70
2023/05/18 04:21:25;;;;;;;9.40;2.70;;;8.10;99.90;;;;;;5062471;28;20132;-69
2023/05/18 04:23:51;;;;;;;14.35;3.22;;;8.10;99.90;;;;;;5047137;28;20581;-69
2023/05/18 04:26:18;;;;;;;12.38;2.95;;;8.10;99.90;;;;;;5044628;28;20041;-69
2023/05/18 04:28:48;;;;;;;14.75;3.30;;;8.10;99.90;;;;;;5052701;28;20442;-69
2023/05/18 04:31:16;;;;;;;13.90;2.70;;;8.10;99.90;;;;;;5045555;28;20072;-69
2023/05/18 04:33:45;;;;;;;14.13;2.85;;;8.10;99.90;;;;;;5031231;28;20048;-69
2023/05/18 04:36:11;;;;;;;11.70;2.53;;;8.10;99.90;;;;;;5047321;28;20489;-69
2023/05/18 04:38:37;;;;;;;11.63;3.08;;;8.10;99.90;;;;;;5047606;28;20044;-69
2023/05/18 04:41:07;;;;;;;11.65;2.45;;;8.10;99.90;;;;;;5044443;28;20044;-69
2023/05/18 04:43:33;;;;;;;11.95;2.50;;;8.10;99.90;;;;;;5066647;28;20033;-69
2023/05/18 04:45:58;;;;;;;13.00;2.78;;;8.10;99.90;;;;;;5046060;28;20048;-68
2023/05/18 04:48:24;;;;;;;9.95;2.47;;;8.10;99.90;;;;;;5062444;28;20379;-68
2023/05/18 04:50:53;;;;;;;10.45;2.35;;;8.10;99.90;;;;;;5044633;28;20675;-70
2023/05/18 04:53:20;;;;;;;14.75;2.60;;;8.20;99.90;;;;;;5044356;28;20040;-68
2023/05/18 04:55:48;;;;;;;11.13;2.53;;;8.20;99.90;;;;;;5042914;28;20151;-68
2023/05/18 04:58:15;;;;;;;11.98;2.67;;;8.20;99.90;;;;;;5062672;28;20059;-70
2023/05/18 05:00:41;;;;;;;10.32;2.08;;;8.30;99.90;;;;;;5045516;28;20071;-70
2023/05/18 05:03:08;;;;;;;12.73;2.90;;;8.20;99.90;;;;;;5050020;28;20086;-70
2023/05/18 05:05:34;;;;;;;13.07;2.80;;;8.30;99.90;;;;;;5031560;28;20124;-69
2023/05/18 05:08:00;;;;;;;10.70;2.35;;;8.30;99.90;;;;;;5055516;28;20087;-69
2023/05/18 05:10:27;;;;;;;13.75;2.80;;;8.30;99.90;;;;;;5044460;28;20505;-69
2023/05/18 05:12:53;;;;;;;14.20;2.80;;;8.40;99.90;;;;;;5057801;28;20049;-69
2023/05/18 05:15:19;;;;;;;11.50;2.60;;;8.40;99.90;;;;;;5047692;28;20025;-69
2023/05/18 05:17:48;;;;;;;8.30;2.40;;;8.40;99.90;;;;;;5050517;28;20098;-69
2023/05/18 05:20:15;;;;;;;10.93;3.03;;;8.40;99.90;;;;;;5054644;28;20566;-68
2023/05/18 05:22:40;;;;;;;13.20;2.40;;;8.40;99.90;;;;;;5049709;28;20774;-68
2023/05/18 05:25:07;;;;;;;12.15;3.03;;;8.40;99.90;;;;;;5044172;28;20037;-68
2023/05/18 05:27:32;;;;;;;10.35;2.90;;;8.40;99.90;;;;;;5045544;28;20059;-69
2023/05/18 05:29:58;;;;;;;11.73;2.25;;;8.40;99.90;;;;;;5046942;28;20045;-69
2023/05/18 05:32:24;;;;;;;13.23;2.83;;;8.40;99.90;;;;;;5061619;28;20099;-70
2023/05/18 05:34:50;;;;;;;11.75;2.88;;;8.50;99.90;;;;;;5046188;28;20084;-70
2023/05/18 05:37:17;;;;;;;12.77;2.67;;;8.50;99.90;;;;;;5050249;28;20032;-68
2023/05/18 05:39:43;;;;;;;14.57;2.78;;;8.50;99.90;;;;;;5062469;28;20040;-70
2023/05/18 05:42:09;;;;;;;11.55;2.60;;;8.50;99.90;;;;;;5052116;28;20049;-70
2023/05/18 05:44:35;;;;;;;13.40;3.00;;;8.50;99.90;;;;;;5056342;28;20045;-69
2023/05/18 05:47:01;;;;;;;15.43;2.88;;;8.60;99.90;;;;;;5061541;28;20038;-70
2023/05/18 05:49:27;;;;;;;9.98;3.33;;;8.60;99.90;;;;;;5028490;28;20040;-68
2023/05/18 05:51:52;;;;;;;9.38;3.05;;;8.70;99.90;;;;;;5034683;28;20051;-70
2023/05/18 05:54:18;;;;;;;11.18;3.03;;;8.70;99.90;;;;;;5059635;28;20052;-69
2023/05/18 05:56:44;;;;;;;11.23;3.28;;;8.70;99.90;;;;;;5037083;28;20052;-69
2023/05/18 05:59:10;;;;;;;15.02;2.55;;;8.70;99.90;;;;;;5045504;28;20071;-70
2023/05/18 06:01:36;;;;;;;19.13;3.35;;;8.70;99.90;;;;;;5047100;28;20120;-69
2023/05/18 06:04:03;;;;;;;13.23;2.80;;;8.70;99.90;;;;;;5044695;28;20317;-69
2023/05/18 06:06:28;;;;;;;13.20;3.28;;;8.80;99.90;;;;;;5044591;28;20044;-70
2023/05/18 06:08:54;;;;;;;9.07;2.83;;;8.90;99.90;;;;;;5048353;28;20037;-70
2023/05/18 06:11:20;;;;;;;11.25;2.42;;;8.90;99.90;;;;;;5036515;28;20068;-69
2023/05/18 06:13:46;;;;;;;9.77;3.08;;;9.00;99.90;;;;;;5044592;28;20047;-68
2023/05/18 06:16:11;;;;;;;13.55;2.58;;;9.10;99.90;;;;;;5056160;28;20423;-69
2023/05/18 06:18:38;;;;;;;14.23;2.92;;;9.20;99.90;;;;;;5055729;28;20075;-69
2023/05/18 06:21:04;;;;;;;13.68;2.80;;;9.20;99.90;;;;;;5043304;28;20033;-67
2023/05/18 06:23:30;;;;;;;9.77;2.63;;;9.30;99.90;;;;;;5061258;28;20109;-67
2023/05/18 06:25:55;;;;;;;10.82;2.95;;;9.40;99.90;;;;;;5046182;28;20049;-66
2023/05/18 06:28:21;;;;;;;9.85;2.38;;;9.30;99.90;;;;;;5027465;28;20118;-66
2023/05/18 06:30:47;;;;;;;11.93;2.80;;;9.30;99.90;;;;;;5028030;28;20052;-67
2023/05/18 06:33:13;;;;;;;10.68;3.25;;;9.30;99.90;;;;;;5054030;28;20091;-67
2023/05/18 06:35:40;;;;;;;10.02;2.63;;;9.30;99.90;;;;;;5048160;28;20598;-66
2023/05/18 06:38:05;;;;;;;14.38;2.90;;;9.40;99.90;;;;;;5064653;28;20124;-66
2023/05/18 06:40:31;;;;;;;12.70;2.75;;;9.50;99.90;;;;;;5061094;28;20131;-67
2023/05/18 06:42:57;;;;;;;13.57;2.85;;;9.60;99.90;;;;;;5049020;28;20037;-69
2023/05/18 06:45:23;;;;;;;8.90;2.38;;;9.60;99.90;;;;;;5047315;28;20551;-68
2023/05/18 06:47:49;;;;;;;15.02;3.13;;;9.60;99.90;;;;;;5044934;28;20047;-69
2023/05/18 06:50:15;;;;;;;13.70;2.63;;;9.60;99.90;;;;;;5052190;28;20595;-68
2023/05/18 06:52:40;;;;;;;7.78;2.45;;;9.60;99.90;;;;;;5039889;28;20032;-67
2023/05/18 06:55:07;;;;;;;8.88;2.58;;;9.70;99.90;;;;;;5033115;28;20044;-66
2023/05/18 06:57:33;;;;;;;12.32;3.13;;;9.70;99.90;;;;;;5052509;28;20084;-67
2023/05/18 06:59:59;;;;;;;12.35;2.50;;;9.70;99.90;;;;;;5044977;28;20500;-68
2023/05/18 07:02:25;;;;;;;12.90;2.75;;;9.80;99.90;;;;;;5041597;28;20477;-69
2023/05/18 07:04:51;;;;;;;14.95;2.95;;;9.90;99.90;;;;;;5044168;28;20047;-67
2023/05/18 07:07:17;;;;;;;10.88;2.67;;;10.00;99.90;;;;;;5049562;28;20053;-66
2023/05/18 07:09:44;;;;;;;17.88;3.03;;;10.10;99.90;;;;;;5062723;28;20119;-66
2023/05/18 07:12:11;;;;;;;11.07;2.33;;;10.20;99.90;;;;;;5063914;28;20835;-63
2023/05/18 07:14:36;;;;;;;15.10;2.30;;;10.30;99.70;;;;;;5061411;28;20352;-65
2023/05/18 07:17:03;;;;;;;14.25;2.72;;;10.20;99.00;;;;;;5044693;28;20047;-64
2023/05/18 07:19:29;;;;;;;12.55;3.00;;;10.30;99.60;;;;;;5027535;28;20049;-66
2023/05/18 07:21:55;;;;;;;9.95;2.53;;;10.40;99.50;;;;;;5043200;28;20102;-67
2023/05/18 07:24:21;;;;;;;10.80;2.72;;;10.40;99.90;;;;;;5044252;28;20044;-66
2023/05/18 07:26:47;;;;;;;9.73;2.42;;;10.40;99.70;;;;;;5043267;28;20091;-68
2023/05/18 07:29:12;;;;;;;9.00;2.50;;;10.40;99.30;;;;;;5043553;28;20032;-69
2023/05/18 07:31:39;;;;;;;11.30;2.50;;;10.30;98.80;;;;;;5042859;28;20103;-68
2023/05/18 07:34:06;;;;;;;13.13;2.60;;;10.30;98.70;;;;;;5055692;28;20090;-67
2023/05/18 07:36:32;;;;;;;10.25;2.15;;;10.30;98.80;;;;;;5063317;28;20051;-66
2023/05/18 07:38:59;;;;;;;11.52;2.70;;;10.20;99.20;;;;;;5042767;28;20049;-66
2023/05/18 07:41:27;;;;;;;11.52;2.60;;;10.10;99.20;;;;;;5043409;28;20103;-67
2023/05/18 07:43:52;;;;;;;11.73;2.60;;;10.00;99.30;;;;;;5044740;28;20044;-69
2023/05/18 07:46:18;;;;;;;10.35;2.40;;;10.10;99.60;;;;;;5043452;28;20059;-67
2023/05/18 07:48:45;;;;;;;14.57;2.50;;;10.10;99.50;;;;;;5043745;28;20540;-71
2023/05/18 07:51:11;;;;;;;10.23;2.50;;;10.10;99.20;;;;;;5043024;28;20045;-69
2023/05/18 07:53:37;;;;;;;11.35;2.47;;;10.00;99.00;;;;;;5043764;28;20660;-69
2023/05/18 07:56:04;;;;;;;12.35;2.58;;;10.00;99.10;;;;;;5043295;28;20045;-68
2023/05/18 07:58:30;;;;;;;13.35;2.30;;;10.00;99.00;;;;;;5043164;28;20423;-68
2023/05/18 08:00:56;;;;;;;12.65;2.72;;;9.90;98.90;;;;;;5042752;28;20053;-68
2023/05/18 08:03:21;;;;;;;11.85;2.42;;;9.90;99.40;;;;;;5060031;28;20044;-67
2023/05/18 08:05:47;;;;;;;11.35;2.85;;;10.00;99.50;;;;;;5042790;28;20075;-67
2023/05/18 08:08:14;;;;;;;10.05;2.60;;;10.00;99.90;;;;;;5027173;28;20033;-66
2023/05/18 08:10:40;;;;;;;11.38;2.63;;;10.10;99.80;;;;;;5043849;28;20551;-68
2023/05/18 08:13:06;;;;;;;14.70;2.70;;;10.20;99.90;;;;;;5043393;28;20060;-65
2023/05/18 08:15:33;;;;;;;13.65;2.72;;;10.30;99.60;;;;;;5042348;28;20038;-67
2023/05/18 08:17:59;;;;;;;11.27;2.65;;;10.40;99.90;;;;;;5043575;28;20045;-66
2023/05/18 08:20:24;;;;;;;9.18;2.40;;;10.60;99.90;;;;;;5042818;28;20497;-65
2023/05/18 08:22:50;;;;;;;10.00;2.47;;;10.80;99.50;;;;;;5059375;28;20041;-69
2023/05/18 08:25:16;;;;;;;12.50;3.15;;;10.70;98.90;;;;;;5043053;28;20098;-68
2023/05/18 08:27:42;;;;;;;9.80;2.40;;;10.70;98.80;;;;;;5029859;28;20051;-67
2023/05/18 08:30:08;;;;;;;11.68;2.45;;;10.80;99.30;;;;;;5047976;28;20045;-67
2023/05/18 08:32:36;;;;;;;10.00;3.08;;;10.90;99.50;;;;;;5030172;28;20083;-65
2023/05/18 08:35:07;;;;;;;8.18;2.60;;;11.20;99.40;;;;;;5047163;28;20068;-68
2023/05/18 08:37:33;;;;;;;9.50;2.58;;;11.20;98.60;;;;;;5047235;28;20044;-67
2023/05/18 08:39:59;;;;;;;12.32;2.88;;;11.30;98.50;;;;;;5047070;28;20401;-65
2023/05/18 08:42:32;;;;;;;8.65;2.38;;;11.30;98.80;;;;;;5047084;28;20041;-67
2023/05/18 08:45:11;;;;;;;12.55;2.47;;;11.30;98.00;;;;;;5046334;28;20045;-67
2023/05/18 08:47:37;;;;;;;9.48;2.40;;;11.30;98.20;;;;;;5046855;28;20033;-69
2023/05/18 08:50:05;;;;;;;12.13;2.67;;;11.50;97.90;;;;;;5046541;28;20178;-66
2023/05/18 08:52:35;;;;;;;8.73;2.58;;;11.40;97.60;;;;;;5047480;28;20116;-67
2023/05/18 08:55:05;;;;;;;13.18;2.60;;;11.40;98.60;;;;;;5046165;28;20497;-67
2023/05/18 08:57:34;;;;;;;14.05;2.60;;;11.40;98.30;;;;;;5045899;28;20543;-65
2023/05/18 09:00:01;;;;;;;10.50;2.60;;;11.30;97.40;;;;;;5046353;28;20045;-67
2023/05/18 09:02:28;;;;;;;11.43;2.20;;;11.40;99.20;;;;;;5057540;28;20060;-69
2023/05/18 09:04:55;;;;;;;14.80;2.55;;;11.50;98.00;;;;;;5045915;28;20576;-70
2023/05/18 09:07:22;;;;;;;10.13;2.17;;;11.50;97.70;;;;;;5046338;28;20404;-67
2023/05/18 09:09:48;;;;;;;11.82;2.83;;;11.40;97.70;;;;;;5045644;28;20044;-65
2023/05/18 09:12:15;;;;;;;10.68;2.67;;;11.30;97.90;;;;;;5045065;28;20055;-68
2023/05/18 09:14:42;;;;;;;11.55;2.40;;;11.20;97.70;;;;;;5045947;28;20439;-67
2023/05/18 09:17:09;;;;;;;9.93;2.45;;;11.30;97.80;;;;;;5047254;28;20045;-66
2023/05/18 09:19:35;;;;;;;13.38;2.38;;;11.20;97.40;;;;;;5046315;28;20689;-66
2023/05/18 09:22:00;;;;;;;9.43;2.28;;;11.20;97.30;;;;;;5046427;28;20037;-66
2023/05/18 09:24:26;;;;;;;13.50;2.60;;;11.10;97.90;;;;;;5046074;28;20783;-66
2023/05/18 09:26:52;;;;;;;14.07;2.40;;;11.10;97.60;;;;;;5045107;28;20599;-67
2023/05/18 09:29:20;;;;;;;11.65;2.75;;;11.10;97.30;;;;;;5033242;28;20036;-69
2023/05/18 09:31:47;;;;;;;11.23;2.20;;;11.10;97.40;;;;;;5065004;28;20059;-65
2023/05/18 09:34:18;;;;;;;15.13;2.95;;;11.10;97.20;;;;;;5060401;28;20043;-62
2023/05/18 09:36:48;;;;;;;11.93;2.90;;;11.10;97.70;;;;;;5061099;28;20040;-66
2023/05/18 09:39:14;;;;;;;14.13;2.80;;;11.20;97.20;;;;;;5028215;28;20092;-66
2023/05/18 09:41:40;;;;;;;14.18;3.00;;;11.30;97.70;;;;;;5044552;28;20045;-67
2023/05/18 09:44:11;;;;;;;10.43;2.80;;;11.60;98.00;;;;;;5050852;28;20037;-67
2023/05/18 09:46:38;;;;;;;12.57;2.90;;;11.80;98.20;;;;;;5045420;28;20049;-65
2023/05/18 09:49:05;;;;;;;14.52;2.65;;;11.90;97.90;;;;;;5045720;28;20120;-65
2023/05/18 09:51:37;;;;;;;15.18;3.25;;;12.00;97.20;;;;;;5046857;28;20045;-66
2023/05/18 09:54:05;;;;;;;13.50;3.05;;;12.00;97.00;;;;;;5045987;28;20044;-66
2023/05/18 09:56:35;;;;;;;9.52;2.30;;;11.90;97.30;;;;;;5028208;28;20052;-66
2023/05/18 09:59:11;;;;;;;10.05;2.42;;;11.90;96.80;;;;;;5045031;28;20053;-64
2023/05/18 10:01:54;;;;;;;8.15;2.53;;;12.00;96.90;;;;;;5044463;28;20407;-66
2023/05/18 10:04:20;;;;;;;11.80;2.92;;;12.10;97.50;;;;;;5048381;28;20047;-65
2023/05/18 10:06:49;;;;;;;12.40;2.90;;;12.20;97.20;;;;;;5052997;28;20037;-67
2023/05/18 10:09:16;;;;;;;8.70;2.90;;;12.30;97.10;;;;;;5045001;28;20041;-65
2023/05/18 10:11:42;;;;;;;8.68;2.30;;;12.40;97.60;;;;;;5044166;28;20093;-68
2023/05/18 10:14:11;;;;;;;11.65;2.85;;;12.40;97.70;;;;;;5044400;28;20045;-67
2023/05/18 10:16:39;;;;;;;10.30;2.40;;;12.40;96.30;;;;;;5044231;28;20079;-65
2023/05/18 10:19:07;;;;;;;14.60;2.83;;;12.20;96.20;;;;;;5045376;28;20524;-67
2023/05/18 10:21:35;;;;;;;10.98;2.70;;;12.20;96.80;;;;;;5043756;28;20048;-68
2023/05/18 10:24:04;;;;;;;9.80;2.35;;;12.00;96.50;;;;;;5046314;28;20099;-68
2023/05/18 10:26:33;;;;;;;11.55;2.53;;;12.00;97.00;;;;;;5044219;28;20080;-64
2023/05/18 10:29:00;;;;;;;8.75;2.35;;;12.10;97.10;;;;;;5044077;28;20683;-65
2023/05/18 10:31:28;;;;;;;8.07;2.35;;;12.10;97.10;;;;;;5043499;28;20083;-65
2023/05/18 10:33:55;;;;;;;9.75;2.67;;;12.30;96.90;;;;;;5044835;28;20770;-67
2023/05/18 10:36:24;;;;;;;10.48;2.38;;;12.40;96.10;;;;;;5045731;28;20120;-64
2023/05/18 10:38:50;;;;;;;7.70;2.33;;;12.50;97.00;;;;;;5044555;28;20064;-67
2023/05/18 10:41:20;;;;;;;11.77;2.90;;;12.60;96.70;;;;;;5043820;28;20057;-67
2023/05/18 10:43:47;;;;;;;11.75;3.50;;;12.70;97.10;;;;;;5045492;28;20037;-64
2023/05/18 10:46:14;;;;;;;12.93;3.67;;;12.70;96.70;;;;;;5060393;28;20501;-67
2023/05/18 10:48:44;;;;;;;8.43;2.55;;;12.60;96.50;;;;;;5044287;28;20041;-68
2023/05/18 10:51:11;;;;;;;11.02;2.30;;;12.50;95.80;;;;;;5044904;28;20049;-65
2023/05/18 10:53:42;;;;;;;12.05;2.75;;;12.40;96.00;;;;;;5044509;28;20124;-67
2023/05/18 10:56:09;;;;;;;9.68;2.40;;;12.30;95.80;;;;;;5044132;28;20068;-67
2023/05/18 10:58:36;;;;;;;9.25;2.55;;;12.30;95.90;;;;;;5045061;28;20061;-65
2023/05/18 11:01:07;;;;;;;9.60;2.85;;;12.20;96.20;;;;;;5042848;28;20057;-68
2023/05/18 11:03:33;;;;;;;8.50;2.80;;;12.20;96.40;;;;;;5045532;28;20328;-65
2023/05/18 11:06:08;;;;;;;9.43;2.85;;;12.20;96.10;;;;;;5043477;28;20041;-66
2023/05/18 11:08:48;;;;;;;10.48;2.80;;;12.20;96.10;;;;;;5044029;28;20051;-71
2023/05/18 11:11:14;;;;;;;13.07;2.58;;;12.30;96.30;;;;;;5043753;28;20041;-67
2023/05/18 11:13:50;;;;;;;12.77;3.50;;;12.30;96.10;;;;;;5043582;28;20041;-65
2023/05/18 11:16:17;;;;;;;10.60;2.67;;;12.40;97.10;;;;;;5044025;28;20076;-65
2023/05/18 11:18:53;;;;;;;11.40;2.90;;;12.40;96.20;;;;;;5044056;28;20067;-71
2023/05/18 11:21:31;;;;;;;8.07;2.50;;;12.40;95.80;;;;;;5026914;28;20043;-67
2023/05/18 11:24:22;;;;;;;9.73;2.70;;;12.50;96.20;;;;;;5045260;28;20116;-67
2023/05/18 11:26:55;;;;;;;8.75;2.50;;;12.50;95.80;;;;;;5042899;28;20051;-67
2023/05/18 11:29:20;;;;;;;9.55;2.45;;;12.70;95.50;;;;;;5043879;28;20258;-65
2023/05/18 11:31:48;;;;;;;10.45;4.25;;;12.70;95.70;;;;;;5059814;28;20645;-66
2023/05/18 11:34:44;;;;;;;12.45;2.80;;;12.90;95.70;;;;;;5062007;28;20049;-63
2023/05/18 11:37:15;;;;;;;12.93;3.03;;;13.00;95.50;;;;;;5046777;28;20114;-66
2023/05/18 11:39:41;;;;;;;7.80;2.63;;;13.00;95.50;;;;;;5045468;28;20056;-65
2023/05/18 11:42:13;;;;;;;8.45;2.72;;;13.00;95.20;;;;;;5054049;28;20385;-68
2023/05/18 11:44:39;;;;;;;11.52;3.22;;;12.90;95.00;;;;;;5042490;28;20395;-65
2023/05/18 11:47:08;;;;;;;11.60;3.13;;;12.90;94.90;;;;;;5043068;28;20041;-61
2023/05/18 11:49:43;;;;;;;10.63;2.70;;;12.80;95.10;;;;;;5043915;28;20073;-65
2023/05/18 11:52:18;;;;;;;14.55;3.38;;;12.80;95.30;;;;;;5042664;28;20448;-66
2023/05/18 11:54:52;;;;;;;12.95;2.80;;;12.80;95.50;;;;;;5027060;28;20041;-64
2023/05/18 11:57:19;;;;;;;10.15;2.92;;;12.80;95.60;;;;;;5042819;28;20060;-69
2023/05/18 11:59:47;;;;;;;9.25;2.65;;;12.90;95.70;;;;;;5026830;28;20041;-68
2023/05/18 12:02:20;;;;;;;12.05;3.22;;;12.80;95.20;;;;;;5045883;28;20049;-64
2023/05/18 12:04:53;;;;;;;11.23;2.88;;;12.90;97.50;;;;;;5047794;28;20037;-66
2023/05/18 12:07:19;;;;;;;11.63;3.10;;;13.00;96.70;;;;;;5047549;28;20131;-68
2023/05/18 12:09:46;;;;;;;9.45;2.70;;;13.00;96.10;;;;;;5047007;28;20033;-68
2023/05/18 12:12:15;;;;;;;9.45;3.10;;;12.90;95.40;;;;;;5046242;28;20052;-70
2023/05/18 12:14:42;;;;;;;10.50;3.08;;;12.80;95.60;;;;;;5047394;28;20426;-68
2023/05/18 12:17:09;;;;;;;12.95;3.50;;;12.80;95.80;;;;;;5048432;28;20063;-67
2023/05/18 12:19:46;;;;;;;10.82;3.20;;;12.80;96.40;;;;;;5047166;28;20047;-65
2023/05/18 12:22:11;;;;;;;7.15;3.03;;;12.90;97.40;;;;;;5046521;28;20123;-71
2023/05/18 12:24:38;;;;;;;13.05;3.33;;;13.00;96.30;;;;;;5048653;28;20751;-71
2023/05/18 12:27:08;;;;;;;8.90;3.00;;;13.10;96.00;;;;;;5046444;28;20776;-66
2023/05/18 12:29:39;;;;;;;12.20;3.30;;;13.10;97.60;;;;;;5048569;28;20107;-67
2023/05/18 12:32:09;;;;;;;11.73;3.00;;;13.20;97.40;;;;;;5046100;28;20049;-66
2023/05/18 12:34:35;;;;;;;16.35;3.15;;;13.30;96.50;;;;;;5047257;28;20048;-64
2023/05/18 12:37:01;;;;;;;12.50;3.25;;;13.30;96.30;;;;;;5046788;28;20740;-68
2023/05/18 12:39:27;;;;;;;13.60;2.92;;;13.30;95.80;;;;;;5063863;28;20095;-65
2023/05/18 12:41:53;;;;;;;11.45;3.33;;;13.30;96.10;;;;;;5029167;28;20041;-66
2023/05/18 12:44:19;;;;;;;14.43;3.25;;;13.40;96.40;;;;;;5046767;28;20372;-64
2023/05/18 12:46:46;;;;;;;11.63;3.25;;;13.50;96.00;;;;;;5047666;28;20522;-70